sensor_id;sensor_type;location;lat;lon;timestamp;P1;P2;P0
39955;PMS5003;25631;51.516;-0.470;2023-05-16T00:00:51;31;29;
39955;PMS5003;25631;51.516;-0.470;2023-05-16T00:03:27;22;22;
39955;PMS5003;25631;51.516;-0.470;2023-05-16T00:06:03;29;28;
39955;PMS5003;25631;51.516;-0.470;2023-05-16T00:08:40;30;28;
39955;PMS5003;25631;51.516;-0.470;2023-05-16T00:11:16;24;23;
39955;PMS5003;25631;51.516;-0.470;2023-05-16T00:13:53;25;23;
39955;PMS5003;25631;51.516;-0.470;2023-05-16T00:16:29;22;22;
39955;PMS5003;25631;51.516;-0.470;2023-05-16T00:19:06;24;24;
39955;PMS5003;25631;51.516;-0.470;2023-05-16T00:21:42;25;25;
39955;PMS5003;25631;51.516;-0.470;2023-05-16T00:24:19;37;30;
39955;PMS5003;25631;51.516;-0.470;2023-05-16T00:26:55;32;27;
39955;PMS5003;25631;51.516;-0.470;2023-05-16T00:29:33;27;27;
39955;PMS5003;25631;51.516;-0.470;2023-05-16T00:32:10;26;25;
39955;PMS5003;25631;51.516;-0.470;2023-05-16T00:34:46;25;23;
39955;PMS5003;25631;51.516;-0.470;2023-05-16T00:37:23;29;24;
39955;PMS5003;25631;51.516;-0.470;2023-05-16T00:39:59;31;25;
39955;PMS5003;25631;51.516;-0.470;2023-05-16T00:42:37;28;26;
39955;PMS5003;25631;51.516;-0.470;2023-05-16T00:45:14;24;23;
39955;PMS5003;25631;51.516;-0.470;2023-05-16T00:47:50;24;23;
39955;PMS5003;25631;51.516;-0.470;2023-05-16T00:50:27;28;25;
39955;PMS5003;25631;51.516;-0.470;2023-05-16T00:53:03;27;24;
39955;PMS5003;25631;51.516;-0.470;2023-05-16T00:55:40;25;21;
39955;PMS5003;25631;51.516;-0.470;2023-05-16T00:58:17;33;30;
39955;PMS5003;25631;51.516;-0.470;2023-05-16T01:00:56;34;30;
39955;PMS5003;25631;51.516;-0.470;2023-05-16T01:03:33;26;25;
39955;PMS5003;25631;51.516;-0.470;2023-05-16T01:06:09;27;26;
39955;PMS5003;25631;51.516;-0.470;2023-05-16T01:08:46;27;27;
39955;PMS5003;25631;51.516;-0.470;2023-05-16T01:11:26;26;26;
39955;PMS5003;25631;51.516;-0.470;2023-05-16T01:14:11;29;28;
39955;PMS5003;25631;51.516;-0.470;2023-05-16T01:16:57;24;23;
39955;PMS5003;25631;51.516;-0.470;2023-05-16T01:19:46;23;22;
39955;PMS5003;25631;51.516;-0.470;2023-05-16T01:22:35;23;21;
39955;PMS5003;25631;51.516;-0.470;2023-05-16T01:25:29;22;22;
39955;PMS5003;25631;51.516;-0.470;2023-05-16T01:28:13;27;25;
39955;PMS5003;25631;51.516;-0.470;2023-05-16T01:30:51;37;31;
39955;PMS5003;25631;51.516;-0.470;2023-05-16T01:33:28;41;33;
39955;PMS5003;25631;51.516;-0.470;2023-05-16T01:36:06;34;30;
39955;PMS5003;25631;51.516;-0.470;2023-05-16T01:38:52;32;29;
39955;PMS5003;25631;51.516;-0.470;2023-05-16T01:41:39;30;27;
39955;PMS5003;25631;51.516;-0.470;2023-05-16T01:44:24;36;32;
39955;PMS5003;25631;51.516;-0.470;2023-05-16T01:47:09;38;31;
39955;PMS5003;25631;51.516;-0.470;2023-05-16T01:49:49;31;28;
39955;PMS5003;25631;51.516;-0.470;2023-05-16T01:52:34;33;31;
39955;PMS5003;25631;51.516;-0.470;2023-05-16T01:55:15;33;30;
39955;PMS5003;25631;51.516;-0.470;2023-05-16T01:57:55;35;34;
39955;PMS5003;25631;51.516;-0.470;2023-05-16T02:00:35;34;32;
39955;PMS5003;25631;51.516;-0.470;2023-05-16T02:03:11;32;30;
39955;PMS5003;25631;51.516;-0.470;2023-05-16T02:05:48;31;30;
39955;PMS5003;25631;51.516;-0.470;2023-05-16T02:08:25;35;33;
39955;PMS5003;25631;51.516;-0.470;2023-05-16T02:11:02;36;34;
39955;PMS5003;25631;51.516;-0.470;2023-05-16T02:13:39;45;42;
39955;PMS5003;25631;51.516;-0.470;2023-05-16T02:16:15;36;36;
39955;PMS5003;25631;51.516;-0.470;2023-05-16T02:18:51;32;30;
39955;PMS5003;25631;51.516;-0.470;2023-05-16T02:21:28;32;31;
39955;PMS5003;25631;51.516;-0.470;2023-05-16T02:24:04;33;31;
39955;PMS5003;25631;51.516;-0.470;2023-05-16T02:26:41;30;28;
39955;PMS5003;25631;51.516;-0.470;2023-05-16T02:29:18;32;28;
39955;PMS5003;25631;51.516;-0.470;2023-05-16T02:31:54;30;27;
39955;PMS5003;25631;51.516;-0.470;2023-05-16T02:34:31;31;27;
39955;PMS5003;25631;51.516;-0.470;2023-05-16T02:37:07;35;31;
39955;PMS5003;25631;51.516;-0.470;2023-05-16T02:39:44;31;30;
39955;PMS5003;25631;51.516;-0.470;2023-05-16T02:42:20;32;30;
39955;PMS5003;25631;51.516;-0.470;2023-05-16T02:44:57;32;31;
39955;PMS5003;25631;51.516;-0.470;2023-05-16T02:47:33;38;33;
39955;PMS5003;25631;51.516;-0.470;2023-05-16T02:50:10;36;30;
39955;PMS5003;25631;51.516;-0.470;2023-05-16T02:52:46;39;38;
39955;PMS5003;25631;51.516;-0.470;2023-05-16T02:55:23;37;34;
39955;PMS5003;25631;51.516;-0.470;2023-05-16T02:58:00;37;34;
39955;PMS5003;25631;51.516;-0.470;2023-05-16T03:00:36;38;33;
39955;PMS5003;25631;51.516;-0.470;2023-05-16T03:03:13;36;33;
39955;PMS5003;25631;51.516;-0.470;2023-05-16T03:05:49;35;31;
39955;PMS5003;25631;51.516;-0.470;2023-05-16T03:08:26;34;31;
39955;PMS5003;25631;51.516;-0.470;2023-05-16T03:11:02;35;33;
39955;PMS5003;25631;51.516;-0.470;2023-05-16T03:13:39;38;36;
39955;PMS5003;25631;51.516;-0.470;2023-05-16T03:16:15;37;34;
39955;PMS5003;25631;51.516;-0.470;2023-05-16T03:18:52;37;33;
39955;PMS5003;25631;51.516;-0.470;2023-05-16T03:21:28;33;31;
39955;PMS5003;25631;51.516;-0.470;2023-05-16T03:24:05;40;38;
39955;PMS5003;25631;51.516;-0.470;2023-05-16T03:26:42;35;35;
39955;PMS5003;25631;51.516;-0.470;2023-05-16T03:29:18;38;38;
39955;PMS5003;25631;51.516;-0.470;2023-05-16T03:31:55;40;39;
39955;PMS5003;25631;51.516;-0.470;2023-05-16T03:34:32;42;40;
39955;PMS5003;25631;51.516;-0.470;2023-05-16T03:37:08;37;37;
39955;PMS5003;25631;51.516;-0.470;2023-05-16T03:39:45;40;37;
39955;PMS5003;25631;51.516;-0.470;2023-05-16T03:42:21;38;36;
39955;PMS5003;25631;51.516;-0.470;2023-05-16T03:44:58;39;37;
39955;PMS5003;25631;51.516;-0.470;2023-05-16T03:47:34;47;42;
39955;PMS5003;25631;51.516;-0.470;2023-05-16T03:50:11;45;41;
39955;PMS5003;25631;51.516;-0.470;2023-05-16T03:52:47;48;42;
39955;PMS5003;25631;51.516;-0.470;2023-05-16T03:55:24;47;41;
39955;PMS5003;25631;51.516;-0.470;2023-05-16T03:58:01;41;38;
39955;PMS5003;25631;51.516;-0.470;2023-05-16T04:00:37;39;36;
39955;PMS5003;25631;51.516;-0.470;2023-05-16T04:03:14;44;38;
39955;PMS5003;25631;51.516;-0.470;2023-05-16T04:05:50;39;35;
39955;PMS5003;25631;51.516;-0.470;2023-05-16T04:08:27;35;35;
39955;PMS5003;25631;51.516;-0.470;2023-05-16T04:11:03;42;39;
39955;PMS5003;25631;51.516;-0.470;2023-05-16T04:13:39;40;37;
39955;PMS5003;25631;51.516;-0.470;2023-05-16T04:16:16;42;40;
39955;PMS5003;25631;51.516;-0.470;2023-05-16T04:18:52;40;37;
39955;PMS5003;25631;51.516;-0.470;2023-05-16T04:21:29;39;37;
39955;PMS5003;25631;51.516;-0.470;2023-05-16T04:24:06;41;39;
39955;PMS5003;25631;51.516;-0.470;2023-05-16T04:26:43;46;45;
39955;PMS5003;25631;51.516;-0.470;2023-05-16T04:29:20;44;42;
39955;PMS5003;25631;51.516;-0.470;2023-05-16T04:31:56;42;42;
39955;PMS5003;25631;51.516;-0.470;2023-05-16T04:34:33;45;38;
39955;PMS5003;25631;51.516;-0.470;2023-05-16T04:37:10;43;38;
39955;PMS5003;25631;51.516;-0.470;2023-05-16T04:39:46;44;41;
39955;PMS5003;25631;51.516;-0.470;2023-05-16T04:42:22;45;40;
39955;PMS5003;25631;51.516;-0.470;2023-05-16T04:44:59;43;39;
39955;PMS5003;25631;51.516;-0.470;2023-05-16T04:47:36;42;40;
39955;PMS5003;25631;51.516;-0.470;2023-05-16T04:50:12;38;37;
39955;PMS5003;25631;51.516;-0.470;2023-05-16T04:52:49;40;39;
39955;PMS5003;25631;51.516;-0.470;2023-05-16T04:55:26;41;40;
39955;PMS5003;25631;51.516;-0.470;2023-05-16T04:58:02;45;42;
39955;PMS5003;25631;51.516;-0.470;2023-05-16T05:00:40;38;37;
39955;PMS5003;25631;51.516;-0.470;2023-05-16T05:03:16;38;37;
39955;PMS5003;25631;51.516;-0.470;2023-05-16T05:05:53;36;35;
39955;PMS5003;25631;51.516;-0.470;2023-05-16T05:08:30;36;36;
39955;PMS5003;25631;51.516;-0.470;2023-05-16T05:11:06;36;35;
39955;PMS5003;25631;51.516;-0.470;2023-05-16T05:13:42;40;37;
39955;PMS5003;25631;51.516;-0.470;2023-05-16T05:16:19;37;36;
39955;PMS5003;25631;51.516;-0.470;2023-05-16T05:18:55;36;35;
39955;PMS5003;25631;51.516;-0.470;2023-05-16T05:21:32;49;43;
39955;PMS5003;25631;51.516;-0.470;2023-05-16T05:24:08;44;41;
39955;PMS5003;25631;51.516;-0.470;2023-05-16T05:26:45;43;39;
39955;PMS5003;25631;51.516;-0.470;2023-05-16T05:29:21;41;38;
39955;PMS5003;25631;51.516;-0.470;2023-05-16T05:31:58;41;39;
39955;PMS5003;25631;51.516;-0.470;2023-05-16T05:34:34;34;32;
39955;PMS5003;25631;51.516;-0.470;2023-05-16T05:37:11;34;31;
39955;PMS5003;25631;51.516;-0.470;2023-05-16T05:39:48;38;35;
39955;PMS5003;25631;51.516;-0.470;2023-05-16T05:42:25;33;31;
39955;PMS5003;25631;51.516;-0.470;2023-05-16T05:45:01;33;31;
39955;PMS5003;25631;51.516;-0.470;2023-05-16T05:47:38;35;34;
39955;PMS5003;25631;51.516;-0.470;2023-05-16T05:50:15;35;34;
39955;PMS5003;25631;51.516;-0.470;2023-05-16T05:52:51;34;33;
39955;PMS5003;25631;51.516;-0.470;2023-05-16T05:55:29;39;38;
39955;PMS5003;25631;51.516;-0.470;2023-05-16T05:58:06;39;38;
39955;PMS5003;25631;51.516;-0.470;2023-05-16T06:00:43;40;38;
39955;PMS5003;25631;51.516;-0.470;2023-05-16T06:03:19;31;31;
39955;PMS5003;25631;51.516;-0.470;2023-05-16T06:05:55;35;34;
39955;PMS5003;25631;51.516;-0.470;2023-05-16T06:08:32;36;35;
39955;PMS5003;25631;51.516;-0.470;2023-05-16T06:11:08;38;36;
39955;PMS5003;25631;51.516;-0.470;2023-05-16T06:13:45;37;35;
39955;PMS5003;25631;51.516;-0.470;2023-05-16T06:16:23;38;38;
39955;PMS5003;25631;51.516;-0.470;2023-05-16T06:18:59;37;37;
39955;PMS5003;25631;51.516;-0.470;2023-05-16T06:21:36;32;32;
39955;PMS5003;25631;51.516;-0.470;2023-05-16T06:24:13;29;29;
39955;PMS5003;25631;51.516;-0.470;2023-05-16T06:26:49;30;30;
39955;PMS5003;25631;51.516;-0.470;2023-05-16T06:29:26;35;34;
39955;PMS5003;25631;51.516;-0.470;2023-05-16T06:32:02;37;35;
39955;PMS5003;25631;51.516;-0.470;2023-05-16T06:34:39;37;34;
39955;PMS5003;25631;51.516;-0.470;2023-05-16T06:37:16;34;32;
39955;PMS5003;25631;51.516;-0.470;2023-05-16T06:39:52;36;35;
39955;PMS5003;25631;51.516;-0.470;2023-05-16T06:42:29;35;35;
39955;PMS5003;25631;51.516;-0.470;2023-05-16T06:45:06;36;35;
39955;PMS5003;25631;51.516;-0.470;2023-05-16T06:47:43;40;38;
39955;PMS5003;25631;51.516;-0.470;2023-05-16T06:50:20;32;29;
39955;PMS5003;25631;51.516;-0.470;2023-05-16T06:52:57;31;29;
39955;PMS5003;25631;51.516;-0.470;2023-05-16T06:55:33;31;30;
39955;PMS5003;25631;51.516;-0.470;2023-05-16T06:58:10;34;34;
39955;PMS5003;25631;51.516;-0.470;2023-05-16T07:00:47;40;39;
39955;PMS5003;25631;51.516;-0.470;2023-05-16T07:03:24;42;41;
39955;PMS5003;25631;51.516;-0.470;2023-05-16T07:06:01;39;36;
39955;PMS5003;25631;51.516;-0.470;2023-05-16T07:08:37;31;31;
39955;PMS5003;25631;51.516;-0.470;2023-05-16T07:11:13;29;29;
39955;PMS5003;25631;51.516;-0.470;2023-05-16T07:13:50;31;31;
39955;PMS5003;25631;51.516;-0.470;2023-05-16T07:16:27;33;33;
39955;PMS5003;25631;51.516;-0.470;2023-05-16T07:19:03;32;32;
39955;PMS5003;25631;51.516;-0.470;2023-05-16T07:21:40;32;32;
39955;PMS5003;25631;51.516;-0.470;2023-05-16T07:24:16;38;35;
39955;PMS5003;25631;51.516;-0.470;2023-05-16T07:26:53;36;34;
39955;PMS5003;25631;51.516;-0.470;2023-05-16T07:29:29;31;30;
39955;PMS5003;25631;51.516;-0.470;2023-05-16T07:32:06;35;31;
39955;PMS5003;25631;51.516;-0.470;2023-05-16T07:34:43;34;30;
39955;PMS5003;25631;51.516;-0.470;2023-05-16T07:37:19;28;28;
39955;PMS5003;25631;51.516;-0.470;2023-05-16T07:39:56;29;29;
39955;PMS5003;25631;51.516;-0.470;2023-05-16T07:42:32;33;31;
39955;PMS5003;25631;51.516;-0.470;2023-05-16T07:45:09;34;31;
39955;PMS5003;25631;51.516;-0.470;2023-05-16T07:47:45;33;30;
39955;PMS5003;25631;51.516;-0.470;2023-05-16T07:50:22;29;27;
39955;PMS5003;25631;51.516;-0.470;2023-05-16T07:52:58;30;29;
39955;PMS5003;25631;51.516;-0.470;2023-05-16T07:55:36;22;22;
39955;PMS5003;25631;51.516;-0.470;2023-05-16T07:58:13;23;22;
39955;PMS5003;25631;51.516;-0.470;2023-05-16T08:00:50;24;22;
39955;PMS5003;25631;51.516;-0.470;2023-05-16T08:03:26;26;25;
39955;PMS5003;25631;51.516;-0.470;2023-05-16T08:06:03;25;24;
39955;PMS5003;25631;51.516;-0.470;2023-05-16T08:08:40;27;26;
39955;PMS5003;25631;51.516;-0.470;2023-05-16T08:11:17;28;27;
39955;PMS5003;25631;51.516;-0.470;2023-05-16T08:13:54;27;26;
39955;PMS5003;25631;51.516;-0.470;2023-05-16T08:16:30;28;23;
39955;PMS5003;25631;51.516;-0.470;2023-05-16T08:19:07;27;23;
39955;PMS5003;25631;51.516;-0.470;2023-05-16T08:21:44;28;25;
39955;PMS5003;25631;51.516;-0.470;2023-05-16T08:24:21;31;29;
39955;PMS5003;25631;51.516;-0.470;2023-05-16T08:26:57;29;29;
39955;PMS5003;25631;51.516;-0.470;2023-05-16T08:29:34;24;23;
39955;PMS5003;25631;51.516;-0.470;2023-05-16T08:32:10;31;26;
39955;PMS5003;25631;51.516;-0.470;2023-05-16T08:34:48;29;27;
39955;PMS5003;25631;51.516;-0.470;2023-05-16T08:37:24;24;22;
39955;PMS5003;25631;51.516;-0.470;2023-05-16T08:40:01;19;19;
39955;PMS5003;25631;51.516;-0.470;2023-05-16T08:42:41;30;28;
39955;PMS5003;25631;51.516;-0.470;2023-05-16T08:45:18;29;27;
39955;PMS5003;25631;51.516;-0.470;2023-05-16T08:47:54;27;25;
39955;PMS5003;25631;51.516;-0.470;2023-05-16T08:50:31;32;28;
39955;PMS5003;25631;51.516;-0.470;2023-05-16T08:53:08;30;27;
39955;PMS5003;25631;51.516;-0.470;2023-05-16T08:55:46;20;19;
39955;PMS5003;25631;51.516;-0.470;2023-05-16T08:58:24;20;20;
39955;PMS5003;25631;51.516;-0.470;2023-05-16T09:01:01;21;20;
39955;PMS5003;25631;51.516;-0.470;2023-05-16T09:03:43;27;25;
39955;PMS5003;25631;51.516;-0.470;2023-05-16T09:06:20;34;30;
39955;PMS5003;25631;51.516;-0.470;2023-05-16T09:08:56;30;28;
39955;PMS5003;25631;51.516;-0.470;2023-05-16T09:11:33;27;27;
39955;PMS5003;25631;51.516;-0.470;2023-05-16T09:14:10;26;26;
39955;PMS5003;25631;51.516;-0.470;2023-05-16T09:16:52;24;23;
39955;PMS5003;25631;51.516;-0.470;2023-05-16T09:19:39;23;22;
39955;PMS5003;25631;51.516;-0.470;2023-05-16T09:22:17;25;24;
39955;PMS5003;25631;51.516;-0.470;2023-05-16T09:24:53;29;25;
39955;PMS5003;25631;51.516;-0.470;2023-05-16T09:27:30;32;27;
39955;PMS5003;25631;51.516;-0.470;2023-05-16T09:30:07;26;25;
39955;PMS5003;25631;51.516;-0.470;2023-05-16T09:32:45;25;25;
39955;PMS5003;25631;51.516;-0.470;2023-05-16T09:35:21;25;25;
39955;PMS5003;25631;51.516;-0.470;2023-05-16T09:37:58;27;22;
39955;PMS5003;25631;51.516;-0.470;2023-05-16T09:40:35;24;21;
39955;PMS5003;25631;51.516;-0.470;2023-05-16T09:43:15;23;19;
39955;PMS5003;25631;51.516;-0.470;2023-05-16T09:45:52;20;18;
39955;PMS5003;25631;51.516;-0.470;2023-05-16T09:48:33;20;18;
39955;PMS5003;25631;51.516;-0.470;2023-05-16T09:51:10;19;17;
39955;PMS5003;25631;51.516;-0.470;2023-05-16T09:53:47;21;19;
39955;PMS5003;25631;51.516;-0.470;2023-05-16T09:56:24;24;21;
39955;PMS5003;25631;51.516;-0.470;2023-05-16T09:59:01;22;21;
39955;PMS5003;25631;51.516;-0.470;2023-05-16T10:01:46;22;21;
39955;PMS5003;25631;51.516;-0.470;2023-05-16T10:04:25;21;19;
39955;PMS5003;25631;51.516;-0.470;2023-05-16T10:07:01;22;20;
39955;PMS5003;25631;51.516;-0.470;2023-05-16T10:09:39;20;19;
39955;PMS5003;25631;51.516;-0.470;2023-05-16T10:12:16;18;18;
39955;PMS5003;25631;51.516;-0.470;2023-05-16T10:14:54;19;18;
39955;PMS5003;25631;51.516;-0.470;2023-05-16T10:17:32;18;18;
39955;PMS5003;25631;51.516;-0.470;2023-05-16T10:20:11;17;17;
39955;PMS5003;25631;51.516;-0.470;2023-05-16T10:22:48;17;17;
39955;PMS5003;25631;51.516;-0.470;2023-05-16T10:25:31;17;17;
39955;PMS5003;25631;51.516;-0.470;2023-05-16T10:28:11;19;18;
39955;PMS5003;25631;51.516;-0.470;2023-05-16T10:30:48;21;19;
39955;PMS5003;25631;51.516;-0.470;2023-05-16T10:33:26;22;21;
39955;PMS5003;25631;51.516;-0.470;2023-05-16T10:36:03;20;20;
39955;PMS5003;25631;51.516;-0.470;2023-05-16T10:38:40;21;20;
39955;PMS5003;25631;51.516;-0.470;2023-05-16T10:41:19;22;22;
39955;PMS5003;25631;51.516;-0.470;2023-05-16T10:43:56;23;22;
39955;PMS5003;25631;51.516;-0.470;2023-05-16T10:46:34;22;20;
39955;PMS5003;25631;51.516;-0.470;2023-05-16T10:49:21;21;19;
39955;PMS5003;25631;51.516;-0.470;2023-05-16T10:52:07;20;19;
39955;PMS5003;25631;51.516;-0.470;2023-05-16T10:54:49;20;19;
39955;PMS5003;25631;51.516;-0.470;2023-05-16T10:57:26;25;21;
39955;PMS5003;25631;51.516;-0.470;2023-05-16T11:00:03;29;22;
39955;PMS5003;25631;51.516;-0.470;2023-05-16T11:02:58;28;23;
39955;PMS5003;25631;51.516;-0.470;2023-05-16T11:05:40;21;20;
39955;PMS5003;25631;51.516;-0.470;2023-05-16T11:08:17;20;19;
39955;PMS5003;25631;51.516;-0.470;2023-05-16T11:11:17;27;25;
39955;PMS5003;25631;51.516;-0.470;2023-05-16T11:14:18;19;19;
39955;PMS5003;25631;51.516;-0.470;2023-05-16T11:17:00;21;20;
39955;PMS5003;25631;51.516;-0.470;2023-05-16T11:19:40;26;25;
39955;PMS5003;25631;51.516;-0.470;2023-05-16T11:22:22;24;24;
39955;PMS5003;25631;51.516;-0.470;2023-05-16T11:25:02;26;25;
39955;PMS5003;25631;51.516;-0.470;2023-05-16T11:27:41;25;24;
39955;PMS5003;25631;51.516;-0.470;2023-05-16T11:30:19;24;23;
39955;PMS5003;25631;51.516;-0.470;2023-05-16T11:32:56;26;25;
39955;PMS5003;25631;51.516;-0.470;2023-05-16T11:35:33;26;25;
39955;PMS5003;25631;51.516;-0.470;2023-05-16T11:38:11;30;29;
39955;PMS5003;25631;51.516;-0.470;2023-05-16T11:40:48;30;30;
39955;PMS5003;25631;51.516;-0.470;2023-05-16T11:43:24;31;30;
39955;PMS5003;25631;51.516;-0.470;2023-05-16T11:46:01;30;27;
39955;PMS5003;25631;51.516;-0.470;2023-05-16T11:48:38;29;27;
39955;PMS5003;25631;51.516;-0.470;2023-05-16T11:51:16;31;30;
39955;PMS5003;25631;51.516;-0.470;2023-05-16T11:53:53;31;30;
39955;PMS5003;25631;51.516;-0.470;2023-05-16T11:56:30;31;30;
39955;PMS5003;25631;51.516;-0.470;2023-05-16T11:59:07;40;37;
39955;PMS5003;25631;51.516;-0.470;2023-05-16T12:01:45;41;39;
39955;PMS5003;25631;51.516;-0.470;2023-05-16T12:04:22;41;40;
39955;PMS5003;25631;51.516;-0.470;2023-05-16T12:06:59;36;35;
39955;PMS5003;25631;51.516;-0.470;2023-05-16T12:09:36;35;33;
39955;PMS5003;25631;51.516;-0.470;2023-05-16T12:12:13;33;31;
39955;PMS5003;25631;51.516;-0.470;2023-05-16T12:14:50;46;41;
39955;PMS5003;25631;51.516;-0.470;2023-05-16T12:17:27;48;45;
39955;PMS5003;25631;51.516;-0.470;2023-05-16T12:20:04;36;35;
39955;PMS5003;25631;51.516;-0.470;2023-05-16T12:22:42;35;34;
39955;PMS5003;25631;51.516;-0.470;2023-05-16T12:25:21;36;34;
39955;PMS5003;25631;51.516;-0.470;2023-05-16T12:28:01;44;43;
39955;PMS5003;25631;51.516;-0.470;2023-05-16T12:30:39;43;42;
39955;PMS5003;25631;51.516;-0.470;2023-05-16T12:33:16;37;35;
39955;PMS5003;25631;51.516;-0.470;2023-05-16T12:35:53;37;34;
39955;PMS5003;25631;51.516;-0.470;2023-05-16T12:38:30;40;37;
39955;PMS5003;25631;51.516;-0.470;2023-05-16T12:41:06;43;41;
39955;PMS5003;25631;51.516;-0.470;2023-05-16T12:43:43;42;40;
39955;PMS5003;25631;51.516;-0.470;2023-05-16T12:46:19;41;39;
39955;PMS5003;25631;51.516;-0.470;2023-05-16T12:49:00;40;38;
39955;PMS5003;25631;51.516;-0.470;2023-05-16T12:51:37;39;38;
39955;PMS5003;25631;51.516;-0.470;2023-05-16T12:54:14;40;40;
39955;PMS5003;25631;51.516;-0.470;2023-05-16T12:56:50;38;38;
39955;PMS5003;25631;51.516;-0.470;2023-05-16T12:59:27;42;40;
39955;PMS5003;25631;51.516;-0.470;2023-05-16T13:02:03;35;33;
39955;PMS5003;25631;51.516;-0.470;2023-05-16T13:04:40;36;34;
39955;PMS5003;25631;51.516;-0.470;2023-05-16T13:07:16;35;33;
39955;PMS5003;25631;51.516;-0.470;2023-05-16T13:09:53;36;35;
39955;PMS5003;25631;51.516;-0.470;2023-05-16T13:12:29;45;42;
39955;PMS5003;25631;51.516;-0.470;2023-05-16T13:15:06;38;38;
39955;PMS5003;25631;51.516;-0.470;2023-05-16T13:17:44;43;40;
39955;PMS5003;25631;51.516;-0.470;2023-05-16T13:20:20;38;37;
39955;PMS5003;25631;51.516;-0.470;2023-05-16T13:22:56;41;39;
39955;PMS5003;25631;51.516;-0.470;2023-05-16T13:25:33;42;39;
39955;PMS5003;25631;51.516;-0.470;2023-05-16T13:28:10;46;45;
39955;PMS5003;25631;51.516;-0.470;2023-05-16T13:30:47;44;44;
39955;PMS5003;25631;51.516;-0.470;2023-05-16T13:33:23;48;45;
39955;PMS5003;25631;51.516;-0.470;2023-05-16T13:35:59;40;37;
39955;PMS5003;25631;51.516;-0.470;2023-05-16T13:38:36;42;40;
39955;PMS5003;25631;51.516;-0.470;2023-05-16T13:41:13;42;42;
39955;PMS5003;25631;51.516;-0.470;2023-05-16T13:43:49;44;42;
39955;PMS5003;25631;51.516;-0.470;2023-05-16T13:46:26;43;40;
39955;PMS5003;25631;51.516;-0.470;2023-05-16T13:49:02;37;36;
39955;PMS5003;25631;51.516;-0.470;2023-05-16T13:51:39;36;35;
39955;PMS5003;25631;51.516;-0.470;2023-05-16T13:54:15;38;36;
39955;PMS5003;25631;51.516;-0.470;2023-05-16T13:56:52;38;35;
39955;PMS5003;25631;51.516;-0.470;2023-05-16T13:59:29;32;30;
39955;PMS5003;25631;51.516;-0.470;2023-05-16T14:02:05;39;38;
39955;PMS5003;25631;51.516;-0.470;2023-05-16T14:04:42;36;36;
39955;PMS5003;25631;51.516;-0.470;2023-05-16T14:07:19;35;34;
39955;PMS5003;25631;51.516;-0.470;2023-05-16T14:09:56;37;34;
39955;PMS5003;25631;51.516;-0.470;2023-05-16T14:12:33;38;36;
39955;PMS5003;25631;51.516;-0.470;2023-05-16T14:15:09;24;23;
39955;PMS5003;25631;51.516;-0.470;2023-05-16T14:17:46;23;22;
39955;PMS5003;25631;51.516;-0.470;2023-05-16T14:20:22;21;20;
39955;PMS5003;25631;51.516;-0.470;2023-05-16T14:22:58;12;12;
39955;PMS5003;25631;51.516;-0.470;2023-05-16T14:25:35;15;15;
39955;PMS5003;25631;51.516;-0.470;2023-05-16T14:28:11;12;11;
39955;PMS5003;25631;51.516;-0.470;2023-05-16T14:30:48;13;12;
39955;PMS5003;25631;51.516;-0.470;2023-05-16T14:33:25;13;12;
39955;PMS5003;25631;51.516;-0.470;2023-05-16T14:36:01;27;27;
39955;PMS5003;25631;51.516;-0.470;2023-05-16T14:38:38;22;22;
39955;PMS5003;25631;51.516;-0.470;2023-05-16T14:41:14;19;19;
39955;PMS5003;25631;51.516;-0.470;2023-05-16T14:43:51;14;13;
39955;PMS5003;25631;51.516;-0.470;2023-05-16T14:46:27;16;15;
39955;PMS5003;25631;51.516;-0.470;2023-05-16T14:49:04;16;14;
39955;PMS5003;25631;51.516;-0.470;2023-05-16T14:51:40;15;14;
39955;PMS5003;25631;51.516;-0.470;2023-05-16T14:54:17;15;14;
39955;PMS5003;25631;51.516;-0.470;2023-05-16T14:56:53;15;15;
39955;PMS5003;25631;51.516;-0.470;2023-05-16T14:59:30;16;16;
39955;PMS5003;25631;51.516;-0.470;2023-05-16T15:02:06;14;13;
39955;PMS5003;25631;51.516;-0.470;2023-05-16T15:04:42;13;13;
39955;PMS5003;25631;51.516;-0.470;2023-05-16T15:07:19;14;14;
39955;PMS5003;25631;51.516;-0.470;2023-05-16T15:09:55;14;13;
39955;PMS5003;25631;51.516;-0.470;2023-05-16T15:12:32;14;13;
39955;PMS5003;25631;51.516;-0.470;2023-05-16T15:15:09;15;14;
39955;PMS5003;25631;51.516;-0.470;2023-05-16T15:17:46;13;13;
39955;PMS5003;25631;51.516;-0.470;2023-05-16T15:20:23;13;13;
39955;PMS5003;25631;51.516;-0.470;2023-05-16T15:23:00;10;10;
39955;PMS5003;25631;51.516;-0.470;2023-05-16T15:25:37;10;10;
39955;PMS5003;25631;51.516;-0.470;2023-05-16T15:28:14;10;10;
39955;PMS5003;25631;51.516;-0.470;2023-05-16T15:30:50;10;10;
39955;PMS5003;25631;51.516;-0.470;2023-05-16T15:33:27;10;10;
39955;PMS5003;25631;51.516;-0.470;2023-05-16T15:36:04;10;10;
39955;PMS5003;25631;51.516;-0.470;2023-05-16T15:38:41;9;9;
39955;PMS5003;25631;51.516;-0.470;2023-05-16T15:41:18;9;9;
39955;PMS5003;25631;51.516;-0.470;2023-05-16T15:43:55;11;11;
39955;PMS5003;25631;51.516;-0.470;2023-05-16T15:46:32;9;9;
39955;PMS5003;25631;51.516;-0.470;2023-05-16T15:49:12;9;9;
39955;PMS5003;25631;51.516;-0.470;2023-05-16T15:51:49;8;8;
39955;PMS5003;25631;51.516;-0.470;2023-05-16T15:54:26;9;9;
39955;PMS5003;25631;51.516;-0.470;2023-05-16T15:57:03;7;6;
39955;PMS5003;25631;51.516;-0.470;2023-05-16T15:59:39;7;7;
39955;PMS5003;25631;51.516;-0.470;2023-05-16T16:02:16;7;6;
39955;PMS5003;25631;51.516;-0.470;2023-05-16T16:04:53;7;6;
39955;PMS5003;25631;51.516;-0.470;2023-05-16T16:07:29;8;7;
39955;PMS5003;25631;51.516;-0.470;2023-05-16T16:10:07;9;8;
39955;PMS5003;25631;51.516;-0.470;2023-05-16T16:12:54;8;8;
39955;PMS5003;25631;51.516;-0.470;2023-05-16T16:15:33;8;8;
39955;PMS5003;25631;51.516;-0.470;2023-05-16T16:18:10;7;6;
39955;PMS5003;25631;51.516;-0.470;2023-05-16T16:20:46;8;7;
39955;PMS5003;25631;51.516;-0.470;2023-05-16T16:23:23;5;5;
39955;PMS5003;25631;51.516;-0.470;2023-05-16T16:26:00;5;4;
39955;PMS5003;25631;51.516;-0.470;2023-05-16T16:28:36;5;5;
39955;PMS5003;25631;51.516;-0.470;2023-05-16T16:31:13;5;5;
39955;PMS5003;25631;51.516;-0.470;2023-05-16T16:33:49;7;7;
39955;PMS5003;25631;51.516;-0.470;2023-05-16T16:36:26;6;5;
39955;PMS5003;25631;51.516;-0.470;2023-05-16T16:39:02;3;3;
39955;PMS5003;25631;51.516;-0.470;2023-05-16T16:41:38;3;3;
39955;PMS5003;25631;51.516;-0.470;2023-05-16T16:44:15;4;2;
39955;PMS5003;25631;51.516;-0.470;2023-05-16T16:46:51;3;2;
39955;PMS5003;25631;51.516;-0.470;2023-05-16T16:49:28;2;1;
39955;PMS5003;25631;51.516;-0.470;2023-05-16T16:52:04;3;3;
39955;PMS5003;25631;51.516;-0.470;2023-05-16T16:54:41;3;3;
39955;PMS5003;25631;51.516;-0.470;2023-05-16T16:57:18;4;4;
39955;PMS5003;25631;51.516;-0.470;2023-05-16T16:59:54;4;4;
39955;PMS5003;25631;51.516;-0.470;2023-05-16T17:02:31;3;3;
39955;PMS5003;25631;51.516;-0.470;2023-05-16T17:05:08;6;4;
39955;PMS5003;25631;51.516;-0.470;2023-05-16T17:07:45;5;3;
39955;PMS5003;25631;51.516;-0.470;2023-05-16T17:10:21;4;2;